Time;durP1;ratioP1;P1;durP2;ratioP2;P2;SDS_P1;SDS_P2;PMS_P1;PMS_P2;Temp;Humidity;BMP_temperature;BMP_pressure;BME280_temperature;BME280_humidity;BME280_pressure;Samples;Min_cycle;Max_cycle;Signal;HPM_P1;HPM_P2
2021/01/28 00:02:03;;;;;;;161.67;41.23;;;;;;;0.71;92.51;100297.09;5011949;28;20034;-68
2021/01/28 00:04:29;;;;;;;129.53;37.40;;;;;;;0.74;92.81;100301.28;5011884;28;20049;-68
2021/01/28 00:06:54;;;;;;;238.07;46.67;;;;;;;0.71;92.47;100307.59;5011435;28;20034;-68
2021/01/28 00:09:19;;;;;;;169.00;43.53;;;;;;;0.72;92.67;100296.13;5011604;28;20376;-68
2021/01/28 00:11:45;;;;;;;176.00;43.10;;;;;;;0.71;92.48;100289.19;5011742;28;20415;-68
2021/01/28 00:14:10;;;;;;;166.63;40.03;;;;;;;0.72;92.73;100290.88;5012639;28;20029;-68
2021/01/28 00:16:35;;;;;;;248.27;53.67;;;;;;;0.71;92.79;100286.56;5012335;28;20431;-68
2021/01/28 00:19:01;;;;;;;180.93;43.37;;;;;;;0.68;92.86;100286.81;5028082;28;20092;-68
2021/01/28 00:21:26;;;;;;;145.10;38.80;;;;;;;0.69;92.67;100287.63;5011473;28;20068;-68
2021/01/28 00:23:52;;;;;;;153.07;40.55;;;;;;;0.72;92.97;100279.53;5012543;28;20068;-68
2021/01/28 00:26:17;;;;;;;204.27;48.57;;;;;;;0.67;93.06;100285.09;5012255;28;20100;-68
2021/01/28 00:28:43;;;;;;;200.80;44.85;;;;;;;0.60;93.09;100283.88;5012269;28;20045;-69
2021/01/28 00:31:08;;;;;;;201.00;44.58;;;;;;;0.64;93.17;100280.09;5012482;28;20034;-68
2021/01/28 00:33:34;;;;;;;153.70;39.83;;;;;;;0.69;93.31;100282.38;5011223;28;20030;-69
2021/01/28 00:35:59;;;;;;;212.13;47.20;;;;;;;0.70;92.96;100278.78;5011025;28;20133;-68
2021/01/28 00:38:28;;;;;;;239.40;48.77;;;;;;;0.72;93.07;100287.41;5011104;28;20129;-68
2021/01/28 00:40:54;;;;;;;176.95;43.63;;;;;;;0.65;93.32;100281.75;4995045;28;20065;-68
2021/01/28 00:43:20;;;;;;;194.88;46.00;;;;;;;0.61;93.32;100282.94;5011315;28;20025;-68
2021/01/28 00:45:46;;;;;;;170.32;42.63;;;;;;;0.62;93.38;100276.72;5011876;28;20049;-68
2021/01/28 00:48:13;;;;;;;140.55;39.78;;;;;;;0.73;93.45;100291.72;5010904;28;20493;-68
2021/01/28 00:50:39;;;;;;;227.15;50.20;;;;;;;0.70;93.25;100290.13;4993687;28;20104;-69
2021/01/28 00:53:06;;;;;;;204.63;46.08;;;;;;;0.70;93.13;100297.19;5012061;28;20052;-68
2021/01/28 00:55:31;;;;;;;154.35;40.67;;;;;;;0.78;93.14;100297.50;5010869;28;20498;-68
2021/01/28 00:58:04;;;;;;;202.18;46.10;;;;;;;0.76;93.12;100288.88;4995523;28;20044;-68
2021/01/28 01:00:37;;;;;;;207.48;45.40;;;;;;;0.75;93.10;100293.28;5010875;28;20455;-68
2021/01/28 01:03:04;;;;;;;219.30;46.30;;;;;;;0.74;93.09;100294.22;5011102;28;20044;-69
2021/01/28 01:05:34;;;;;;;220.73;50.42;;;;;;;0.72;93.06;100293.50;5011718;28;20711;-68
2021/01/28 01:08:05;;;;;;;175.80;39.38;;;;;;;0.74;93.21;100296.84;4994303;28;20033;-68
2021/01/28 01:10:36;;;;;;;137.02;40.65;;;;;;;0.84;93.17;100303.16;5011480;28;20061;-68
2021/01/28 01:13:02;;;;;;;135.52;38.00;;;;;;;0.87;92.82;100293.34;5010819;28;20061;-68
2021/01/28 01:15:27;;;;;;;141.00;38.13;;;;;;;0.71;93.24;100291.81;4994163;28;20036;-68
2021/01/28 01:17:53;;;;;;;151.20;40.13;;;;;;;0.70;92.99;100292.75;4993988;28;20414;-68
2021/01/28 01:20:25;;;;;;;126.03;35.13;;;;;;;0.72;93.24;100288.22;4995004;28;20060;-68
2021/01/28 01:22:51;;;;;;;122.05;35.97;;;;;;;0.75;92.82;100290.66;5010596;28;20095;-68
2021/01/28 01:25:18;;;;;;;116.47;29.95;;;;;;;0.81;93.12;100292.00;5010515;28;20120;-68
2021/01/28 01:27:44;;;;;;;96.13;29.15;;;;;;;0.82;93.05;100305.03;5011247;28;20095;-68
2021/01/28 01:30:29;;;;;;;;;;;;;;;0.79;92.81;100307.88;5011787;28;20088;-68
2021/01/28 01:32:55;;;;;;;79.72;25.38;;;;;;;0.82;92.52;100310.28;5010525;28;19925;-68
2021/01/28 01:35:40;;;;;;;81.68;26.10;;;;;;;0.81;92.44;100307.78;5010289;28;20038;-68
2021/01/28 01:38:09;;;;;;;63.92;22.90;;;;;;;0.86;92.03;100315.31;5010657;28;20065;-68
2021/01/28 01:40:42;;;;;;;62.50;21.83;;;;;;;0.86;91.74;100315.31;4994031;28;20049;-68
2021/01/28 01:43:10;;;;;;;69.85;23.45;;;;;;;0.88;91.77;100314.25;5010449;28;20124;-68
2021/01/28 01:45:44;;;;;;;79.22;24.27;;;;;;;0.88;91.60;100323.94;5010136;28;20061;-68
2021/01/28 01:48:19;;;;;;;69.18;25.42;;;;;;;0.83;91.55;100311.97;4994173;28;20041;-68
2021/01/28 01:51:20;;;;;;;66.60;23.45;;;;;;;0.93;91.07;100313.94;5010282;28;20061;-68
2021/01/28 01:53:53;;;;;;;64.80;19.80;;;;;;;0.96;90.76;100321.56;5006794;28;20137;-68
2021/01/28 01:56:23;;;;;;;65.22;22.80;;;;;;;0.95;90.61;100318.13;5010085;28;20048;-68
2021/01/28 01:58:56;;;;;;;58.40;22.85;;;;;;;0.94;90.50;100319.09;4993918;28;20033;-68
2021/01/28 02:01:45;;;;;;;62.97;23.35;;;;;;;0.96;90.56;100318.94;5011343;28;20060;-68
2021/01/28 02:04:29;;;;;;;50.67;19.95;;;;;;;0.98;90.00;100309.16;5015205;28;20072;-68
2021/01/28 02:07:18;;;;;;;51.13;20.27;;;;;;;0.94;89.92;100316.44;5015063;28;20057;-68
2021/01/28 02:10:06;;;;;;;49.78;18.35;;;;;;;0.91;89.75;100313.19;5014896;28;20060;-68
2021/01/28 02:12:53;;;;;;;42.92;15.77;;;;;;;0.89;88.97;100310.69;5000138;28;20076;-68
2021/01/28 02:15:21;;;;;;;42.08;16.13;;;;;;;0.92;89.13;100310.47;5013813;28;20038;-68
2021/01/28 02:17:52;;;;;;;39.72;16.70;;;;;;;0.91;88.81;100318.44;4997486;28;20195;-68
2021/01/28 02:21:00;;;;;;;35.47;14.15;;;;;;;0.90;88.69;100317.63;5017802;28;20421;-68
2021/01/28 02:23:57;;;;;;;27.88;11.88;;;;;;;0.99;87.83;100324.00;5013811;28;20459;-68
2021/01/28 02:26:28;;;;;;;30.60;14.02;;;;;;;0.98;87.20;100319.69;5013298;28;20088;-68
2021/01/28 02:28:59;;;;;;;34.08;15.27;;;;;;;0.99;87.33;100318.75;5013622;28;20104;-68
2021/01/28 02:31:29;;;;;;;38.47;13.57;;;;;;;1.00;87.04;100313.34;5013613;28;20030;-68
2021/01/28 02:33:57;;;;;;;33.92;13.15;;;;;;;0.98;86.90;100309.16;5013622;28;20076;-68
2021/01/28 02:36:36;;;;;;;31.85;12.68;;;;;;;0.95;87.01;100309.41;5013326;28;20076;-68
2021/01/28 02:39:29;;;;;;;34.55;12.95;;;;;;;0.99;86.89;100303.81;5015226;28;20117;-68
2021/01/28 02:42:16;;;;;;;34.15;12.82;;;;;;;0.94;86.57;100298.06;5013469;28;20034;-68
2021/01/28 02:44:49;;;;;;;33.80;13.35;;;;;;;0.98;86.94;100294.25;5013481;28;20116;-68
2021/01/28 02:47:35;;;;;;;32.75;13.30;;;;;;;0.95;86.98;100297.09;5013887;28;20053;-68
2021/01/28 02:50:24;;;;;;;31.55;12.75;;;;;;;0.96;86.42;100300.56;5013245;28;20367;-68
2021/01/28 02:52:58;;;;;;;27.27;12.13;;;;;;;0.99;86.63;100316.13;5013216;28;20037;-68
2021/01/28 02:55:27;;;;;;;17.33;8.00;;;;;;;0.97;86.18;100307.50;5013173;28;20042;-68
2021/01/28 02:57:53;;;;;;;16.58;8.45;;;;;;;0.93;85.62;100300.78;4996384;28;20057;-68
2021/01/28 03:00:24;;;;;;;18.10;8.00;;;;;;;0.94;85.02;100307.72;5013096;28;20459;-68
2021/01/28 03:02:51;;;;;;;9.23;5.63;;;;;;;0.90;84.17;100301.00;5013072;28;20053;-68
2021/01/28 03:05:22;;;;;;;11.73;6.18;;;;;;;0.96;83.84;100313.69;4997520;28;20037;-68
2021/01/28 03:07:48;;;;;;;11.15;5.57;;;;;;;0.93;83.84;100325.28;5012710;28;20041;-68
2021/01/28 03:10:16;;;;;;;8.77;4.53;;;;;;;0.90;82.74;100322.88;4996396;28;20092;-68
2021/01/28 03:12:58;;;;;;;6.65;3.53;;;;;;;0.87;82.82;100323.09;5012289;28;20116;-68
2021/01/28 03:15:38;;;;;;;9.23;4.85;;;;;;;0.71;82.74;100323.34;5012578;28;20030;-68
2021/01/28 03:18:04;;;;;;;7.70;3.80;;;;;;;0.64;82.56;100332.63;5012619;28;20052;-68
2021/01/28 03:20:30;;;;;;;8.00;4.28;;;;;;;0.64;82.13;100322.13;5012778;28;20633;-68
2021/01/28 03:22:57;;;;;;;;;;;;;;;0.60;82.03;100325.91;5012980;28;20029;-68
2021/01/28 03:25:43;;;;;;;4.85;3.22;;;;;;;0.57;82.10;100323.50;5009421;28;19913;-68
2021/01/28 03:28:10;;;;;;;4.70;3.17;;;;;;;0.54;80.61;100319.31;4996169;28;20044;-68
2021/01/28 03:30:40;;;;;;;8.57;3.38;;;;;;;0.51;79.62;100326.56;5012513;28;20129;-67
2021/01/28 03:33:07;;;;;;;7.05;3.60;;;;;;;0.42;80.03;100320.16;5013325;28;20128;-67
2021/01/28 03:35:34;;;;;;;4.72;3.42;;;;;;;0.43;80.84;100319.22;5012241;28;20041;-68
2021/01/28 03:38:04;;;;;;;6.55;3.92;;;;;;;0.37;80.82;100327.53;5028761;28;20045;-67
2021/01/28 03:40:32;;;;;;;;;;;;;;;0.43;80.55;100313.13;5012926;28;20088;-68
2021/01/28 03:43:00;;;;;;;10.45;4.30;;;;;;;0.37;80.78;100307.34;5012319;28;19913;-67
2021/01/28 03:45:27;;;;;;;8.27;3.72;;;;;;;0.40;80.21;100315.03;5012242;28;20041;-67
2021/01/28 03:47:54;;;;;;;4.80;3.38;;;;;;;0.42;80.20;100314.91;5011811;28;20045;-68
2021/01/28 03:50:36;;;;;;;5.45;2.90;;;;;;;0.30;79.71;100313.13;4997886;28;20034;-67
2021/01/28 03:53:21;;;;;;;6.13;2.93;;;;;;;0.32;80.01;100319.13;5012175;28;20038;-67
2021/01/28 03:55:53;;;;;;;4.85;3.08;;;;;;;0.36;79.71;100321.44;5012809;28;20040;-67
2021/01/28 03:58:18;;;;;;;5.73;2.73;;;;;;;0.25;79.82;100320.50;5011795;28;20112;-67
2021/01/28 04:00:52;;;;;;;9.00;3.50;;;;;;;0.27;79.74;100311.56;5011892;28;20047;-67
2021/01/28 04:03:19;;;;;;;5.72;3.35;;;;;;;0.25;79.77;100325.75;5011936;28;20375;-67
2021/01/28 04:06:09;;;;;;;9.98;4.78;;;;;;;0.22;80.00;100325.97;5011695;28;20426;-67
2021/01/28 04:08:53;;;;;;;4.18;3.10;;;;;;;0.28;79.56;100331.66;5012665;28;20057;-67
2021/01/28 04:11:39;;;;;;;5.13;3.33;;;;;;;0.20;80.27;100326.06;4998334;28;20069;-68
2021/01/28 04:14:37;;;;;;;4.18;2.80;;;;;;;0.24;80.28;100329.34;5011718;28;20132;-68
2021/01/28 04:17:03;;;;;;;5.72;3.20;;;;;;;0.21;80.23;100322.50;5011419;28;20128;-67
2021/01/28 04:19:29;;;;;;;6.18;3.00;;;;;;;0.25;80.08;100323.97;5011652;28;20021;-67
2021/01/28 04:21:55;;;;;;;6.65;3.55;;;;;;;0.26;80.30;100330.03;5011629;28;20049;-67
2021/01/28 04:24:21;;;;;;;6.18;3.33;;;;;;;0.21;80.22;100325.13;5011371;28;20033;-68
2021/01/28 04:26:53;;;;;;;4.20;3.28;;;;;;;0.23;80.43;100327.66;5012125;28;20091;-67
2021/01/28 04:29:30;;;;;;;5.47;2.55;;;;;;;0.14;80.00;100323.84;5011186;28;20061;-67
2021/01/28 04:32:18;;;;;;;4.28;2.85;;;;;;;0.07;79.31;100322.59;5012323;28;20037;-67
2021/01/28 04:35:07;;;;;;;4.38;2.83;;;;;;;0.01;79.62;100328.28;5012313;28;20064;-68
2021/01/28 04:37:33;;;;;;;5.90;3.03;;;;;;;-0.04;79.77;100323.34;5011055;28;20065;-68
2021/01/28 04:40:16;;;;;;;6.72;2.30;;;;;;;-0.04;79.70;100315.47;5011206;28;20025;-67
2021/01/28 04:42:45;;;;;;;5.38;2.40;;;;;;;-0.12;79.25;100312.53;5011357;28;20364;-67
2021/01/28 04:45:21;;;;;;;4.75;3.00;;;;;;;-0.17;79.46;100325.97;5011187;28;20041;-67
2021/01/28 04:48:02;;;;;;;5.20;3.42;;;;;;;-0.21;78.89;100308.78;5011007;28;20048;-67
2021/01/28 04:50:47;;;;;;;5.78;3.35;;;;;;;-0.51;78.49;100309.88;5012051;28;20056;-67
2021/01/28 04:53:29;;;;;;;6.43;3.17;;;;;;;-0.45;78.86;100312.06;5010653;28;20452;-67
2021/01/28 04:56:21;;;;;;;7.10;3.40;;;;;;;-0.57;78.84;100318.13;5011457;28;20041;-67
2021/01/28 04:59:26;;;;;;;5.88;3.70;;;;;;;-0.64;78.29;100306.38;5010900;28;20065;-67
2021/01/28 05:01:53;;;;;;;8.23;3.35;;;;;;;-0.72;78.51;100309.50;4995132;28;20065;-67
2021/01/28 05:04:57;;;;;;;7.65;3.05;;;;;;;-0.81;78.85;100306.66;5010888;28;20044;-67
2021/01/28 05:07:42;;;;;;;5.03;3.20;;;;;;;-0.86;79.25;100310.41;5020339;28;20045;-67
2021/01/28 05:10:30;;;;;;;6.22;3.88;;;;;;;-0.92;79.52;100317.84;5010502;28;20049;-67
2021/01/28 05:13:25;;;;;;;5.38;3.22;;;;;;;-0.96;79.74;100309.34;5011655;28;20052;-67
2021/01/28 05:16:41;;;;;;;5.20;3.33;;;;;;;-0.79;78.91;100307.41;5010471;28;20053;-67
2021/01/28 05:19:47;;;;;;;5.53;3.65;;;;;;;-0.87;78.96;100310.50;5019626;28;20054;-67
2021/01/28 05:23:05;;;;;;;9.63;5.10;;;;;;;-0.91;79.61;100314.28;5010906;28;20050;-67
2021/01/28 05:25:43;;;;;;;10.60;4.35;;;;;;;-0.89;79.04;100322.88;5010173;28;20068;-67
2021/01/28 05:28:37;;;;;;;9.60;4.80;;;;;;;-0.90;79.63;100316.78;5010447;28;20042;-67
2021/01/28 05:31:37;;;;;;;9.35;4.55;;;;;;;-0.88;79.38;100320.16;5011478;28;20038;-67
2021/01/28 05:34:34;;;;;;;7.63;4.22;;;;;;;-0.91;79.21;100307.25;5011332;28;20038;-67
2021/01/28 05:37:31;;;;;;;10.63;4.40;;;;;;;-0.85;79.11;100319.94;5014559;28;20129;-67
2021/01/28 05:40:21;;;;;;;10.25;4.88;;;;;;;-0.85;79.05;100309.47;5017013;28;20108;-67
2021/01/28 05:42:55;;;;;;;7.97;4.28;;;;;;;-0.89;78.59;100321.09;5001637;28;20480;-67
2021/01/28 05:45:22;;;;;;;7.43;4.53;;;;;;;-0.87;79.09;100311.38;5016804;28;20073;-67
2021/01/28 05:48:19;;;;;;;6.63;3.88;;;;;;;-0.91;79.15;100309.03;5016984;28;20044;-67
2021/01/28 05:51:20;;;;;;;9.13;4.65;;;;;;;-0.87;79.54;100294.78;5016649;28;20070;-67
2021/01/28 05:54:20;;;;;;;10.27;4.53;;;;;;;-0.96;79.52;100305.84;5000274;28;20030;-67
2021/01/28 05:57:07;;;;;;;7.80;4.22;;;;;;;-0.93;79.47;100298.66;5001546;28;20059;-67
2021/01/28 05:59:52;;;;;;;10.00;4.68;;;;;;;-0.91;78.94;100296.78;5016441;28;20036;-67
2021/01/28 06:02:49;;;;;;;8.30;5.28;;;;;;;-0.88;79.07;100304.44;5016360;28;20026;-67
2021/01/28 06:05:55;;;;;;;10.80;4.72;;;;;;;-0.89;78.93;100305.38;5016928;28;20113;-67
2021/01/28 06:08:26;;;;;;;10.20;5.15;;;;;;;-0.91;78.86;100304.63;5016151;28;20038;-68
2021/01/28 06:11:16;;;;;;;9.15;4.72;;;;;;;-0.89;79.18;100300.13;5016273;28;20038;-67
2021/01/28 06:14:02;;;;;;;7.70;4.22;;;;;;;-0.98;79.09;100302.53;5016284;28;20463;-67
2021/01/28 06:17:14;;;;;;;7.65;4.00;;;;;;;-1.05;79.12;100302.06;5017232;28;20057;-67
2021/01/28 06:20:34;;;;;;;9.55;4.25;;;;;;;-1.01;79.57;100307.94;5017101;28;20041;-67
2021/01/28 06:23:38;;;;;;;7.88;3.97;;;;;;;-1.02;79.01;100301.88;5016199;28;20444;-67
2021/01/28 06:26:43;;;;;;;7.07;4.13;;;;;;;-1.03;79.17;100309.81;5002395;28;20869;-67
2021/01/28 06:29:42;;;;;;;8.05;3.55;;;;;;;-1.08;79.45;100304.88;5017078;28;20034;-67
2021/01/28 06:32:14;;;;;;;8.95;4.38;;;;;;;-1.08;79.22;100297.00;5016473;28;20467;-67
2021/01/28 06:35:10;;;;;;;8.73;3.95;;;;;;;-1.05;79.32;100296.84;5017534;28;20112;-67
2021/01/28 06:38:04;;;;;;;4.68;3.42;;;;;;;-0.90;78.94;100287.13;5017326;28;20056;-67
2021/01/28 06:40:52;;;;;;;7.97;3.60;;;;;;;-0.95;79.19;100303.16;5017320;28;20140;-67
2021/01/28 06:44:01;;;;;;;7.20;4.13;;;;;;;-0.98;79.49;100285.00;5017302;28;20046;-67
2021/01/28 06:46:46;;;;;;;8.80;4.43;;;;;;;-1.07;79.12;100275.97;5017116;28;20045;-67
2021/01/28 06:50:14;;;;;;;8.27;3.83;;;;;;;-1.00;79.97;100271.16;5014255;28;20560;-67
2021/01/28 06:52:53;;;;;;;14.15;4.10;;;;;;;-1.08;79.81;100269.06;5013242;28;20041;-67
2021/01/28 06:55:41;;;;;;;9.07;3.72;;;;;;;-1.00;80.23;100267.72;4998680;28;20050;-67
2021/01/28 06:58:47;;;;;;;;;;;;;;;-1.02;79.93;100262.56;5013547;28;20030;-67
2021/01/28 07:01:29;;;;;;;8.93;4.00;;;;;;;-0.97;80.09;100251.78;5013145;28;19968;-67
2021/01/28 07:04:26;;;;;;;6.70;4.22;;;;;;;-0.97;79.34;100243.91;5013012;28;20038;-67
2021/01/28 07:07:22;;;;;;;8.88;3.95;;;;;;;-1.01;79.95;100250.28;5012697;28;20037;-67
2021/01/28 07:10:30;;;;;;;9.38;4.15;;;;;;;-0.94;79.93;100244.53;5000460;28;20125;-67
2021/01/28 07:13:19;;;;;;;8.73;3.20;;;;;;;-0.91;79.36;100251.38;5014067;28;20074;-67
2021/01/28 07:16:13;;;;;;;5.68;3.20;;;;;;;-0.95;79.74;100249.91;5013329;28;20076;-67
2021/01/28 07:18:45;;;;;;;5.95;3.40;;;;;;;-0.94;79.71;100254.19;5012808;28;20104;-67
2021/01/28 07:21:25;;;;;;;5.05;2.10;;;;;;;-0.96;79.20;100249.06;5012857;28;20038;-67
2021/01/28 07:24:02;;;;;;;5.28;1.80;;;;;;;-0.92;78.54;100244.44;5012733;28;20037;-67
2021/01/28 07:26:44;;;;;;;9.13;1.85;;;;;;;-0.87;77.82;100243.22;5012277;28;20034;-67
2021/01/28 07:29:31;;;;;;;5.05;1.40;;;;;;;-0.85;77.34;100243.94;5012589;28;20042;-67
2021/01/28 07:31:58;;;;;;;3.28;1.50;;;;;;;-0.90;77.25;100247.81;4996276;28;20130;-67
2021/01/28 07:34:34;;;;;;;5.82;2.13;;;;;;;-0.94;76.77;100246.31;5012081;28;20463;-67
2021/01/28 07:37:39;;;;;;;3.10;1.30;;;;;;;-0.86;76.89;100241.44;4996920;28;20467;-66
2021/01/28 07:40:57;;;;;;;3.70;0.95;;;;;;;-0.83;76.78;100253.50;5012697;28;20176;-66
2021/01/28 07:43:41;;;;;;;6.47;1.30;;;;;;;-0.83;76.36;100248.25;5012169;28;20060;-66
2021/01/28 07:46:28;;;;;;;2.65;1.50;;;;;;;-0.81;76.80;100249.00;5011944;28;20392;-67
2021/01/28 07:49:21;;;;;;;4.50;1.65;;;;;;;-0.80;76.53;100241.00;4996800;28;20044;-66
2021/01/28 07:52:29;;;;;;;5.20;1.98;;;;;;;-0.79;76.03;100241.88;5012106;28;20051;-66
2021/01/28 07:54:55;;;;;;;8.20;1.20;;;;;;;-0.77;75.84;100250.44;5013057;28;20042;-66
2021/01/28 07:57:29;;;;;;;;;;;;;;;-0.75;75.61;100240.69;5012228;28;20057;-66
2021/01/28 08:00:09;;;;;;;3.00;1.45;;;;;;;-0.77;75.75;100232.97;5027873;28;19916;-67
2021/01/28 08:02:41;;;;;;;;;;;;;;;-0.74;75.36;100237.16;5013491;28;20034;-66
2021/01/28 08:05:25;;;;;;;4.28;0.98;;;;;;;-0.79;74.86;100236.63;5012740;28;20063;-66
2021/01/28 08:08:05;;;;;;;3.65;1.33;;;;;;;-0.83;74.35;100243.84;5011446;28;20033;-66
2021/01/28 08:10:32;;;;;;;5.65;2.05;;;;;;;-0.78;74.52;100235.69;5011445;28;20037;-66
2021/01/28 08:13:18;;;;;;;2.00;1.00;;;;;;;-0.82;74.51;100244.69;5012628;28;20061;-67
2021/01/28 08:16:06;;;;;;;4.70;1.73;;;;;;;-0.85;73.79;100237.84;5012382;28;20033;-66
2021/01/28 08:18:43;;;;;;;3.90;1.30;;;;;;;-0.86;73.63;100239.66;5011365;28;20419;-66
2021/01/28 08:21:20;;;;;;;2.60;1.17;;;;;;;-0.72;73.60;100243.97;5011663;28;20029;-66
2021/01/28 08:23:46;;;;;;;4.25;1.02;;;;;;;-0.63;73.74;100234.66;5012485;28;20029;-67
2021/01/28 08:26:15;;;;;;;3.10;1.08;;;;;;;-0.67;72.28;100239.25;5012278;28;20040;-67
2021/01/28 08:28:42;;;;;;;2.28;1.00;;;;;;;-0.71;72.05;100257.91;5011490;28;20048;-67
2021/01/28 08:31:19;;;;;;;3.97;1.05;;;;;;;-0.64;72.22;100264.44;5012168;28;20041;-67
2021/01/28 08:33:48;;;;;;;2.92;1.25;;;;;;;-0.60;72.27;100260.66;5011466;28;20121;-67
2021/01/28 08:36:27;;;;;;;4.22;0.93;;;;;;;-0.65;71.76;100262.75;5011976;28;20030;-66
2021/01/28 08:39:14;;;;;;;5.93;1.23;;;;;;;-0.56;72.47;100267.38;5011335;28;20049;-67
2021/01/28 08:41:40;;;;;;;3.25;1.65;;;;;;;-0.50;73.47;100269.59;5012031;28;20029;-67
2021/01/28 08:44:10;;;;;;;2.75;1.35;;;;;;;-0.44;73.13;100271.81;5012160;28;20034;-67
2021/01/28 08:46:38;;;;;;;3.70;1.60;;;;;;;-0.36;73.68;100270.44;5011794;28;20052;-67
2021/01/28 08:49:13;;;;;;;3.92;1.23;;;;;;;-0.34;73.39;100266.78;5011108;28;20049;-67
2021/01/28 08:51:43;;;;;;;4.47;1.38;;;;;;;-0.34;73.24;100269.38;5011934;28;20128;-67
2021/01/28 08:54:30;;;;;;;4.07;1.00;;;;;;;-0.25;73.22;100257.44;4994686;28;20442;-67
2021/01/28 08:56:58;;;;;;;2.13;0.82;;;;;;;-0.26;72.74;100255.75;5011548;28;20056;-67
2021/01/28 08:59:43;;;;;;;4.72;1.92;;;;;;;-0.26;73.07;100263.63;5011943;28;20034;-67
2021/01/28 09:02:16;;;;;;;2.55;1.38;;;;;;;-0.33;72.18;100262.34;5010958;28;20041;-67
2021/01/28 09:04:47;;;;;;;3.20;0.98;;;;;;;-0.27;73.08;100262.78;5011855;28;20128;-67
2021/01/28 09:07:51;;;;;;;3.58;1.52;;;;;;;-0.19;72.28;100269.28;5010521;28;20141;-67
2021/01/28 09:10:42;;;;;;;4.70;1.20;;;;;;;-0.33;72.38;100244.84;5010605;28;20472;-67
2021/01/28 09:13:32;;;;;;;5.65;1.10;;;;;;;-0.39;72.34;100239.19;5011161;28;20044;-66
2021/01/28 09:16:20;;;;;;;6.63;1.52;;;;;;;-0.29;73.01;100238.44;4994126;28;20041;-67
2021/01/28 09:18:50;;;;;;;4.45;1.80;;;;;;;-0.21;72.57;100240.56;5010714;28;20046;-67
2021/01/28 09:21:17;;;;;;;6.47;1.75;;;;;;;-0.16;71.76;100235.81;5010487;28;20069;-67
2021/01/28 09:24:04;;;;;;;4.07;1.20;;;;;;;-0.11;72.15;100238.13;5010456;28;20053;-67
2021/01/28 09:26:36;;;;;;;5.05;1.55;;;;;;;-0.13;71.32;100240.84;5010381;28;20508;-67
2021/01/28 09:29:37;;;;;;;2.53;1.15;;;;;;;-0.13;71.15;100221.66;5011593;28;20034;-67
2021/01/28 09:32:27;;;;;;;5.85;1.42;;;;;;;0.02;70.70;100235.47;5011484;28;20129;-67
2021/01/28 09:35:14;;;;;;;3.40;1.17;;;;;;;0.00;69.03;100240.84;5011653;28;20041;-67
2021/01/28 09:38:00;;;;;;;2.58;1.20;;;;;;;0.02;69.10;100246.81;5009997;28;20048;-66
2021/01/28 09:40:29;;;;;;;;;;;;;;;0.11;67.94;100240.91;5010870;28;20505;-66
2021/01/28 09:43:33;;;;;;;4.40;1.35;;;;;;;0.19;67.81;100237.78;5011318;28;19928;-67
2021/01/28 09:46:22;;;;;;;5.40;2.08;;;;;;;0.32;67.07;100235.94;5011078;28;20030;-67
2021/01/28 09:48:50;;;;;;;3.67;1.05;;;;;;;1.50;63.96;100239.56;5011370;28;20137;-67
2021/01/28 09:51:26;;;;;;;5.57;1.40;;;;;;;1.63;64.17;100231.56;5011192;28;20359;-66
2021/01/28 09:54:00;;;;;;;2.33;1.52;;;;;;;1.55;63.26;100229.53;5010254;28;20676;-66
2021/01/28 09:56:26;;;;;;;6.63;1.42;;;;;;;1.53;64.74;100225.34;5009883;28;20073;-67
2021/01/28 09:58:51;;;;;;;7.93;1.90;;;;;;;1.58;63.91;100224.00;5010185;28;20042;-67
2021/01/28 10:01:17;;;;;;;1.55;0.95;;;;;;;1.60;63.19;100226.53;5010450;28;20448;-67
2021/01/28 10:03:42;;;;;;;4.37;1.77;;;;;;;1.32;63.33;100227.81;5010182;28;20041;-67
2021/01/28 10:06:07;;;;;;;5.90;1.20;;;;;;;1.02;64.36;100223.88;5010140;28;20518;-67
2021/01/28 10:08:32;;;;;;;5.87;2.00;;;;;;;0.93;64.85;100216.66;5010989;28;20112;-66
2021/01/28 10:10:58;;;;;;;4.67;1.30;;;;;;;0.98;65.11;100209.28;5010079;28;20034;-67
2021/01/28 10:13:23;;;;;;;4.47;2.07;;;;;;;1.05;64.75;100218.38;5010030;28;20457;-67
2021/01/28 10:15:48;;;;;;;2.30;1.40;;;;;;;0.84;64.66;100211.16;5009962;28;20095;-66
2021/01/28 10:18:14;;;;;;;5.43;1.63;;;;;;;0.93;65.32;100212.25;5010099;28;20045;-66
2021/01/28 10:20:41;;;;;;;4.30;1.33;;;;;;;0.99;65.61;100208.34;5010958;28;20037;-67
2021/01/28 10:23:07;;;;;;;3.40;1.15;;;;;;;0.98;64.84;100198.75;5012250;28;20041;-77
2021/01/28 10:25:32;;;;;;;5.68;1.20;;;;;;;0.78;66.43;100197.63;5014731;28;20077;-77
2021/01/28 10:27:58;;;;;;;3.90;1.30;;;;;;;0.86;65.70;100197.06;5014594;28;20073;-67
2021/01/28 10:30:23;;;;;;;2.07;1.20;;;;;;;0.72;64.47;100198.91;5013700;28;20053;-67
2021/01/28 10:32:51;;;;;;;3.53;1.27;;;;;;;0.71;66.08;100197.22;5013771;28;20042;-67
2021/01/28 10:35:20;;;;;;;3.58;1.63;;;;;;;0.77;65.76;100201.19;5014344;28;20038;-77
2021/01/28 10:37:46;;;;;;;5.00;1.48;;;;;;;0.73;65.51;100202.38;5013427;28;20099;-77
2021/01/28 10:40:12;;;;;;;2.47;1.57;;;;;;;0.83;65.23;100198.94;5013497;28;20459;-77
2021/01/28 10:42:40;;;;;;;3.90;1.42;;;;;;;0.93;65.54;100195.63;5014499;28;20042;-77
2021/01/28 10:45:09;;;;;;;5.60;1.67;;;;;;;1.09;65.93;100201.44;5013533;28;20069;-77
2021/01/28 10:47:35;;;;;;;3.55;1.90;;;;;;;1.07;65.52;100198.06;5013283;28;20196;-78
2021/01/28 10:50:00;;;;;;;8.90;2.10;;;;;;;1.03;65.46;100196.63;5014221;28;20117;-77
2021/01/28 10:52:25;;;;;;;3.50;1.10;;;;;;;1.17;64.92;100200.84;5013690;28;20116;-67
2021/01/28 10:54:51;;;;;;;3.37;1.30;;;;;;;0.69;66.30;100199.13;5013088;28;20057;-67
2021/01/28 10:57:16;;;;;;;2.60;1.30;;;;;;;0.83;66.72;100206.84;5013665;28;20042;-67
2021/01/28 10:59:41;;;;;;;6.87;1.20;;;;;;;0.74;64.58;100206.69;5013842;28;20037;-67
2021/01/28 11:02:07;;;;;;;10.00;1.77;;;;;;;0.81;66.61;100211.38;5013861;28;20091;-66
2021/01/28 11:04:32;;;;;;;4.83;2.10;;;;;;;0.70;65.55;100211.31;5014045;28;20121;-67
2021/01/28 11:06:57;;;;;;;2.27;1.43;;;;;;;0.80;65.59;100211.50;5012600;28;20056;-67
2021/01/28 11:09:23;;;;;;;3.83;1.53;;;;;;;0.92;66.22;100209.75;5013728;28;20040;-67
2021/01/28 11:11:48;;;;;;;7.40;1.70;;;;;;;0.97;64.76;100223.38;5013850;28;20152;-66
2021/01/28 11:14:13;;;;;;;2.87;2.03;;;;;;;0.97;65.37;100215.50;5013920;28;20041;-66
2021/01/28 11:16:39;;;;;;;3.83;1.30;;;;;;;0.99;64.24;100218.84;5013484;28;20042;-67
2021/01/28 11:19:05;;;;;;;7.33;1.60;;;;;;;1.04;64.85;100214.09;5012918;28;20045;-67
2021/01/28 11:21:31;;;;;;;3.10;1.52;;;;;;;0.93;65.03;100207.00;5029180;28;20276;-66
2021/01/28 11:23:56;;;;;;;6.75;1.80;;;;;;;1.04;65.15;100203.56;5012664;28;20356;-67
2021/01/28 11:26:21;;;;;;;3.67;1.60;;;;;;;1.29;64.80;100202.56;5028933;28;20037;-67
2021/01/28 11:28:47;;;;;;;5.17;1.83;;;;;;;1.33;65.02;100204.00;5013605;28;20180;-67
2021/01/28 11:31:12;;;;;;;4.43;1.40;;;;;;;1.46;64.23;100196.84;5013443;28;20099;-66
2021/01/28 11:33:38;;;;;;;4.20;1.45;;;;;;;1.28;63.08;100193.00;5013494;28;20049;-66
2021/01/28 11:36:03;;;;;;;6.43;1.58;;;;;;;1.21;63.74;100189.97;5012378;28;20038;-67
2021/01/28 11:38:29;;;;;;;7.75;1.55;;;;;;;1.25;63.34;100194.06;5013409;28;20038;-67
2021/01/28 11:40:55;;;;;;;4.57;1.50;;;;;;;1.16;65.53;100189.50;5013380;28;20410;-66
2021/01/28 11:43:21;;;;;;;5.35;1.50;;;;;;;1.25;65.21;100178.28;5013412;28;20375;-66
2021/01/28 11:45:46;;;;;;;4.57;1.75;;;;;;;1.30;65.32;100177.09;5012091;28;20038;-66
2021/01/28 11:48:11;;;;;;;3.60;1.77;;;;;;;1.20;65.26;100171.72;5012378;28;20050;-67
2021/01/28 11:50:37;;;;;;;9.60;1.50;;;;;;;1.02;65.18;100164.25;5012237;28;20033;-66
2021/01/28 11:53:03;;;;;;;2.95;1.63;;;;;;;0.91;63.18;100166.84;4995878;28;20061;-67
2021/01/28 11:55:29;;;;;;;4.43;1.48;;;;;;;1.17;65.62;100161.41;5012969;28;20044;-67
2021/01/28 11:57:55;;;;;;;;;;;;;;;1.88;63.58;100156.81;5013305;28;20034;-67
2021/01/28 12:00:22;;;;;;;2.17;1.48;;;;;;;1.94;62.37;100150.19;5012158;28;20032;-66
2021/01/28 12:02:48;;;;;;;6.35;2.22;;;;;;;2.17;61.70;100151.00;5012475;28;20034;-67
2021/01/28 12:05:17;;;;;;;4.55;1.60;;;;;;;2.37;62.05;100152.06;5012702;28;20132;-67
2021/01/28 12:07:42;;;;;;;6.30;1.67;;;;;;;2.30;61.52;100154.34;5027210;28;20511;-67
2021/01/28 12:10:10;;;;;;;9.70;2.10;;;;;;;2.07;60.27;100157.00;5011975;28;20107;-67
2021/01/28 12:12:37;;;;;;;4.63;1.70;;;;;;;2.02;62.00;100153.91;5012293;28;20041;-67